Time;durP1;ratioP1;P1;durP2;ratioP2;P2;SDS_P1;SDS_P2;PMS_P1;PMS_P2;Temp;Humidity;BMP_temperature;BMP_pressure;BME280_temperature;BME280_humidity;BME280_pressure;Samples;Min_cycle;Max_cycle;Signal;HPM_P1;HPM_P2
2022/07/07 00:02:24;;;;;;;3.80;2.83;;;20.60;64.10;;;;;;5014532;28;20227;-76
2022/07/07 00:04:50;;;;;;;4.03;3.37;;;20.60;63.80;;;;;;5019919;28;20213;-76
2022/07/07 00:07:16;;;;;;;3.70;2.90;;;20.30;64.40;;;;;;5016017;28;20238;-76
2022/07/07 00:09:41;;;;;;;4.13;2.97;;;20.30;64.70;;;;;;5021025;28;20731;-75
2022/07/07 00:12:07;;;;;;;4.67;3.63;;;20.20;64.60;;;;;;5018497;28;20277;-76
2022/07/07 00:14:34;;;;;;;3.50;2.90;;;20.10;65.00;;;;;;5014412;28;20718;-77
2022/07/07 00:17:00;;;;;;;6.10;2.80;;;20.10;65.00;;;;;;4997684;28;20489;-75
2022/07/07 00:19:26;;;;;;;3.23;2.93;;;20.10;65.00;;;;;;5015952;28;20873;-75
2022/07/07 00:21:51;;;;;;;3.70;2.97;;;19.80;65.10;;;;;;5014817;28;20247;-76
2022/07/07 00:24:17;;;;;;;5.10;3.07;;;19.80;65.80;;;;;;5014869;28;20471;-77
2022/07/07 00:26:43;;;;;;;6.60;3.07;;;19.90;66.30;;;;;;5016177;28;20221;-77
2022/07/07 00:29:09;;;;;;;3.83;2.80;;;19.90;66.90;;;;;;5013756;28;20184;-76
2022/07/07 00:31:34;;;;;;;7.83;3.20;;;19.90;67.20;;;;;;5018957;28;20183;-76
2022/07/07 00:34:00;;;;;;;3.10;2.80;;;19.90;67.10;;;;;;5022757;28;20279;-77
2022/07/07 00:36:26;;;;;;;3.77;3.37;;;19.70;67.70;;;;;;5006460;28;20680;-77
2022/07/07 00:38:51;;;;;;;5.10;3.10;;;19.70;68.20;;;;;;5017251;28;20424;-76
2022/07/07 00:41:17;;;;;;;4.57;3.53;;;19.80;68.30;;;;;;5020429;28;20263;-77
2022/07/07 00:43:44;;;;;;;3.30;3.00;;;19.80;68.00;;;;;;5012624;28;20223;-77
2022/07/07 00:46:11;;;;;;;6.20;3.10;;;19.70;68.30;;;;;;5015975;28;20192;-76
2022/07/07 00:48:39;;;;;;;3.30;2.90;;;19.60;68.40;;;;;;5013573;28;20534;-76
2022/07/07 00:51:06;;;;;;;10.43;3.30;;;19.60;68.80;;;;;;5013375;28;20427;-76
2022/07/07 00:53:32;;;;;;;4.17;3.07;;;19.70;68.40;;;;;;5016614;28;20452;-75
2022/07/07 00:55:58;;;;;;;6.07;3.30;;;19.70;68.40;;;;;;5018219;28;20490;-76
2022/07/07 00:58:24;;;;;;;4.63;2.70;;;19.80;66.80;;;;;;5014140;28;20906;-75
2022/07/07 01:00:50;;;;;;;4.80;3.10;;;19.70;66.60;;;;;;5013713;28;20192;-75
2022/07/07 01:03:16;;;;;;;3.83;2.80;;;19.60;65.70;;;;;;5003668;28;20983;-76
2022/07/07 01:05:46;;;;;;;2.87;2.67;;;19.40;66.00;;;;;;5013834;28;20440;-76
2022/07/07 01:08:15;;;;;;;3.40;3.10;;;19.20;66.20;;;;;;5015289;28;21005;-75
2022/07/07 01:10:44;;;;;;;2.70;2.50;;;19.00;67.00;;;;;;5016001;28;20691;-75
2022/07/07 01:13:09;;;;;;;4.80;2.97;;;19.00;67.60;;;;;;5014468;28;20423;-76
2022/07/07 01:15:35;;;;;;;4.90;3.37;;;19.10;67.70;;;;;;5014518;28;20432;-76
2022/07/07 01:18:01;;;;;;;3.10;2.53;;;19.30;67.20;;;;;;5014304;28;20190;-76
2022/07/07 01:20:27;;;;;;;3.80;3.00;;;19.10;67.70;;;;;;5016286;28;20181;-76
2022/07/07 01:22:54;;;;;;;4.43;2.70;;;19.20;68.00;;;;;;5015572;28;20649;-77
2022/07/07 01:25:20;;;;;;;5.17;3.10;;;19.10;68.70;;;;;;5014446;28;20959;-76
2022/07/07 01:27:47;;;;;;;3.70;3.33;;;19.00;69.30;;;;;;5016256;28;20428;-76
2022/07/07 01:30:13;;;;;;;3.47;3.07;;;19.10;69.20;;;;;;5018834;28;20518;-76
2022/07/07 01:32:38;;;;;;;4.50;2.97;;;19.10;70.00;;;;;;5015282;28;20507;-76
2022/07/07 01:35:05;;;;;;;6.93;2.97;;;18.90;71.00;;;;;;5017723;28;21401;-77
2022/07/07 01:37:33;;;;;;;4.40;3.07;;;18.80;71.50;;;;;;5016209;28;20236;-76
2022/07/07 01:39:59;;;;;;;4.43;3.10;;;18.80;72.00;;;;;;5010179;28;20448;-75
2022/07/07 01:42:24;;;;;;;3.00;2.70;;;19.00;71.50;;;;;;5013828;28;20445;-74
2022/07/07 01:44:51;;;;;;;3.50;3.17;;;18.90;71.40;;;;;;5013744;28;20295;-75
2022/07/07 01:47:18;;;;;;;3.93;2.90;;;18.90;71.80;;;;;;5010561;28;20215;-74
2022/07/07 01:49:44;;;;;;;9.00;4.23;;;18.90;72.00;;;;;;5015473;28;20517;-75
2022/07/07 01:52:10;;;;;;;4.17;3.20;;;18.90;72.30;;;;;;5015495;28;20447;-74
2022/07/07 01:54:37;;;;;;;5.97;3.00;;;18.70;72.60;;;;;;5013732;28;20600;-76
2022/07/07 01:57:04;;;;;;;3.50;2.87;;;18.90;72.80;;;;;;4998974;28;20266;-74
2022/07/07 01:59:30;;;;;;;11.37;3.80;;;18.90;72.70;;;;;;5008828;28;20965;-74
2022/07/07 02:01:56;;;;;;;3.43;3.13;;;18.80;73.20;;;;;;5010379;28;20440;-76
2022/07/07 02:04:21;;;;;;;3.70;3.30;;;18.70;73.50;;;;;;5017363;28;20218;-77
2022/07/07 02:06:47;;;;;;;6.83;3.03;;;18.40;75.00;;;;;;5014593;28;20459;-78
2022/07/07 02:09:13;;;;;;;8.70;3.70;;;18.40;75.50;;;;;;5015741;28;20191;-76
2022/07/07 02:11:39;;;;;;;3.90;3.33;;;18.60;75.30;;;;;;5014390;28;20424;-77
2022/07/07 02:14:06;;;;;;;4.20;3.23;;;18.60;75.60;;;;;;5012741;28;20263;-76
2022/07/07 02:16:33;;;;;;;4.50;3.20;;;18.50;76.00;;;;;;5015266;28;20444;-77
2022/07/07 02:19:02;;;;;;;4.30;2.97;;;18.50;76.70;;;;;;5016012;28;20948;-76
2022/07/07 02:21:28;;;;;;;4.10;3.13;;;18.50;76.80;;;;;;5014047;28;20817;-76
2022/07/07 02:23:56;;;;;;;3.73;3.07;;;18.50;76.90;;;;;;5019943;28;20493;-77
2022/07/07 02:26:22;;;;;;;4.67;3.13;;;18.50;76.70;;;;;;5020390;28;20458;-76
2022/07/07 02:28:48;;;;;;;5.20;3.57;;;18.40;76.10;;;;;;5018898;28;20451;-78
2022/07/07 02:31:14;;;;;;;3.77;3.43;;;18.40;76.40;;;;;;5017674;28;20427;-77
2022/07/07 02:33:40;;;;;;;3.43;3.00;;;18.50;76.30;;;;;;5021343;28;20842;-77
2022/07/07 02:36:07;;;;;;;5.80;2.93;;;18.40;75.70;;;;;;5016021;28;20232;-77
2022/07/07 02:38:33;;;;;;;5.50;3.47;;;18.30;75.80;;;;;;5014255;28;20428;-77
2022/07/07 02:40:59;;;;;;;4.57;2.87;;;18.40;75.70;;;;;;5019566;28;20490;-76
2022/07/07 02:43:26;;;;;;;7.23;3.00;;;18.30;75.80;;;;;;5013713;28;20507;-77
2022/07/07 02:45:52;;;;;;;5.43;3.33;;;18.30;75.70;;;;;;5016932;28;20765;-77
2022/07/07 02:48:24;;;;;;;3.17;2.80;;;18.40;75.40;;;;;;5016723;28;20451;-75
2022/07/07 02:50:50;;;;;;;4.03;2.80;;;18.40;75.10;;;;;;5012582;28;20530;-76
2022/07/07 02:53:17;;;;;;;3.33;3.03;;;18.40;75.10;;;;;;5011475;28;20456;-76
2022/07/07 02:55:43;;;;;;;3.60;3.27;;;18.40;75.40;;;;;;5012545;28;20454;-75
2022/07/07 02:58:11;;;;;;;3.10;2.80;;;18.40;74.90;;;;;;5017710;28;20455;-75
2022/07/07 03:00:36;;;;;;;3.57;3.20;;;18.50;74.70;;;;;;5004575;28;20446;-75
2022/07/07 03:03:05;;;;;;;7.03;3.00;;;18.50;74.80;;;;;;5019436;28;20472;-77
2022/07/07 03:05:31;;;;;;;4.07;3.27;;;18.50;74.70;;;;;;5019012;28;20188;-76
2022/07/07 03:07:58;;;;;;;3.80;3.40;;;18.40;74.70;;;;;;5016024;28;20451;-76
2022/07/07 03:10:23;;;;;;;4.70;3.10;;;18.40;75.70;;;;;;5018711;28;20450;-76
2022/07/07 03:12:49;;;;;;;3.60;2.80;;;18.30;75.50;;;;;;5018868;28;20518;-77
2022/07/07 03:15:15;;;;;;;3.63;3.27;;;18.20;76.20;;;;;;5022927;28;20264;-77
2022/07/07 03:17:45;;;;;;;4.13;3.50;;;18.30;76.10;;;;;;5012250;28;20212;-78
2022/07/07 03:20:13;;;;;;;7.60;3.27;;;18.40;76.00;;;;;;5019318;28;20524;-76
2022/07/07 03:22:39;;;;;;;3.40;3.10;;;18.40;75.50;;;;;;5014984;28;20865;-75
2022/07/07 03:25:06;;;;;;;3.50;3.13;;;18.40;75.80;;;;;;5016104;28;21025;-75
2022/07/07 03:27:32;;;;;;;4.30;3.10;;;18.30;76.20;;;;;;5017665;28;20473;-76
2022/07/07 03:29:58;;;;;;;4.47;3.00;;;18.20;76.70;;;;;;5014521;28;20435;-75
2022/07/07 03:32:23;;;;;;;4.07;3.30;;;17.90;78.00;;;;;;5018682;28;20776;-75
2022/07/07 03:34:49;;;;;;;4.40;2.97;;;17.80;78.90;;;;;;5018238;28;20186;-78
2022/07/07 03:37:15;;;;;;;7.10;4.00;;;17.80;78.80;;;;;;5018056;28;20575;-77
2022/07/07 03:39:40;;;;;;;7.60;3.37;;;17.90;78.70;;;;;;5015061;28;20189;-77
2022/07/07 03:42:06;;;;;;;4.63;3.50;;;17.80;79.30;;;;;;5018305;28;20208;-78
2022/07/07 03:44:32;;;;;;;4.00;3.40;;;17.80;79.30;;;;;;5020415;28;20212;-78
2022/07/07 03:46:57;;;;;;;3.40;2.93;;;17.90;80.20;;;;;;5003995;28;20201;-77
2022/07/07 03:49:23;;;;;;;3.83;3.53;;;18.00;78.60;;;;;;5021176;28;20224;-77
2022/07/07 03:51:48;;;;;;;3.70;3.40;;;17.80;78.50;;;;;;5017989;28;20196;-77
2022/07/07 03:54:15;;;;;;;5.60;3.63;;;17.80;79.00;;;;;;5014386;28;20190;-78
2022/07/07 03:56:40;;;;;;;4.53;3.63;;;17.90;78.60;;;;;;5019249;28;20235;-76
2022/07/07 03:59:06;;;;;;;3.23;2.93;;;17.80;78.90;;;;;;5018195;28;20474;-75
2022/07/07 04:01:32;;;;;;;5.93;3.30;;;17.70;79.20;;;;;;5015965;28;20698;-77
2022/07/07 04:03:57;;;;;;;3.20;2.70;;;17.90;78.30;;;;;;5015491;28;20208;-76
2022/07/07 04:06:23;;;;;;;4.30;2.90;;;18.00;77.70;;;;;;5013606;28;20267;-76
2022/07/07 04:08:49;;;;;;;4.07;3.17;;;17.90;78.20;;;;;;5014791;28;20201;-74
2022/07/07 04:11:18;;;;;;;4.40;3.50;;;17.80;78.00;;;;;;5014895;28;20199;-76
2022/07/07 04:13:44;;;;;;;4.10;3.30;;;17.70;78.40;;;;;;5017982;28;20481;-75
2022/07/07 04:16:09;;;;;;;8.90;3.43;;;17.80;78.60;;;;;;5015002;28;20455;-76
2022/07/07 04:18:35;;;;;;;4.30;3.60;;;17.80;78.40;;;;;;5019229;28;20184;-76
2022/07/07 04:21:01;;;;;;;4.47;3.63;;;17.70;78.60;;;;;;5014027;28;20263;-76
2022/07/07 04:23:27;;;;;;;3.90;3.50;;;17.70;78.70;;;;;;5018246;28;20205;-76
2022/07/07 04:25:53;;;;;;;3.67;3.20;;;17.70;79.00;;;;;;5012064;28;21045;-76
2022/07/07 04:28:19;;;;;;;4.67;3.53;;;17.70;79.20;;;;;;5021678;28;20493;-75
2022/07/07 04:30:44;;;;;;;3.50;3.20;;;17.70;79.40;;;;;;5014118;28;20376;-76
2022/07/07 04:33:10;;;;;;;4.50;3.13;;;17.70;79.70;;;;;;5019603;28;20493;-75
2022/07/07 04:35:36;;;;;;;10.43;3.90;;;17.60;80.40;;;;;;5016561;28;20180;-78
2022/07/07 04:38:01;;;;;;;5.63;3.20;;;17.70;80.60;;;;;;5015407;28;20571;-78
2022/07/07 04:40:27;;;;;;;3.80;3.10;;;17.70;81.60;;;;;;5011159;28;20189;-76
2022/07/07 04:42:53;;;;;;;5.93;3.97;;;17.80;81.10;;;;;;5012224;28;20239;-75
2022/07/07 04:45:18;;;;;;;5.77;3.60;;;17.80;81.40;;;;;;5018540;28;20238;-78
2022/07/07 04:47:44;;;;;;;4.03;3.73;;;17.80;81.50;;;;;;4998225;28;20662;-77
2022/07/07 04:50:11;;;;;;;4.70;3.40;;;17.80;81.80;;;;;;5015153;28;20183;-77
2022/07/07 04:52:38;;;;;;;6.33;3.50;;;17.90;82.00;;;;;;5018763;28;20218;-77
2022/07/07 04:55:04;;;;;;;4.13;3.30;;;17.90;81.70;;;;;;5021256;28;20866;-76
2022/07/07 04:57:30;;;;;;;4.63;3.50;;;18.00;82.10;;;;;;5020478;28;20451;-77
2022/07/07 04:59:57;;;;;;;4.77;4.30;;;18.10;82.20;;;;;;5017494;28;20475;-76
2022/07/07 05:02:23;;;;;;;4.63;3.53;;;18.10;81.80;;;;;;4997829;28;20468;-76
2022/07/07 05:04:51;;;;;;;4.80;3.50;;;18.10;83.20;;;;;;5016607;28;20475;-75
2022/07/07 05:07:18;;;;;;;3.43;3.13;;;18.20;82.00;;;;;;5011212;28;20208;-76
2022/07/07 05:09:44;;;;;;;5.33;3.47;;;18.10;82.00;;;;;;5018976;28;20458;-76
2022/07/07 05:12:09;;;;;;;10.10;3.53;;;18.10;82.30;;;;;;5014916;28;20847;-76
2022/07/07 05:14:35;;;;;;;4.40;3.60;;;18.10;82.00;;;;;;5009790;28;20204;-76
2022/07/07 05:17:01;;;;;;;6.00;3.60;;;18.20;81.90;;;;;;5012680;28;20284;-76
2022/07/07 05:19:27;;;;;;;6.37;3.57;;;18.20;81.70;;;;;;5013232;28;20459;-77
2022/07/07 05:21:53;;;;;;;5.53;3.50;;;18.20;81.90;;;;;;5012589;28;20272;-77
2022/07/07 05:24:19;;;;;;;4.50;3.23;;;18.30;81.70;;;;;;5013915;28;20225;-75
2022/07/07 05:26:44;;;;;;;4.00;3.20;;;18.30;81.60;;;;;;5016464;28;20461;-74
2022/07/07 05:29:10;;;;;;;7.80;3.50;;;18.30;81.40;;;;;;5010961;28;20267;-74
2022/07/07 05:31:36;;;;;;;6.77;3.40;;;18.40;81.30;;;;;;5012180;28;20268;-74
2022/07/07 05:34:01;;;;;;;5.53;3.60;;;18.40;81.30;;;;;;5016982;28;20199;-74
2022/07/07 05:36:27;;;;;;;4.17;3.27;;;18.40;81.10;;;;;;5012256;28;20213;-74
2022/07/07 05:38:52;;;;;;;5.40;4.30;;;18.30;81.60;;;;;;5012672;28;20258;-73
2022/07/07 05:41:18;;;;;;;5.53;3.80;;;18.30;81.40;;;;;;5019383;28;20185;-73
2022/07/07 05:43:44;;;;;;;4.10;3.67;;;18.30;81.50;;;;;;5011302;28;20299;-73
2022/07/07 05:46:11;;;;;;;3.57;3.27;;;18.30;81.30;;;;;;5015792;28;20200;-74
2022/07/07 05:48:37;;;;;;;4.10;3.70;;;18.40;81.20;;;;;;5019988;28;20443;-73
2022/07/07 05:51:03;;;;;;;3.40;3.10;;;18.40;81.30;;;;;;5011487;28;20530;-72
2022/07/07 05:53:29;;;;;;;3.23;3.03;;;18.30;81.40;;;;;;5015051;28;20546;-74
2022/07/07 05:55:56;;;;;;;3.50;3.20;;;18.30;81.50;;;;;;5012993;28;20747;-74
2022/07/07 05:58:21;;;;;;;3.77;3.30;;;18.30;81.50;;;;;;5014896;28;20434;-74
2022/07/07 06:00:47;;;;;;;4.60;3.53;;;18.40;80.30;;;;;;5016200;28;20432;-75
2022/07/07 06:03:13;;;;;;;4.00;3.60;;;18.40;80.60;;;;;;5020169;28;20252;-75
2022/07/07 06:05:38;;;;;;;3.90;3.10;;;18.50;80.40;;;;;;5011156;28;20605;-74
2022/07/07 06:08:04;;;;;;;3.87;3.47;;;18.60;80.20;;;;;;5013945;28;20212;-74
2022/07/07 06:10:31;;;;;;;8.70;3.33;;;18.60;80.20;;;;;;5018455;28;20185;-74
2022/07/07 06:12:56;;;;;;;4.87;3.13;;;18.60;80.50;;;;;;5013574;28;20439;-75
2022/07/07 06:15:22;;;;;;;5.57;3.20;;;18.80;80.50;;;;;;5013310;28;20892;-76
2022/07/07 06:17:48;;;;;;;3.50;3.20;;;18.90;80.40;;;;;;5004085;28;20684;-76
2022/07/07 06:20:14;;;;;;;6.80;3.70;;;19.00;79.60;;;;;;5018694;28;20188;-76
2022/07/07 06:22:40;;;;;;;5.43;3.40;;;19.10;79.50;;;;;;5013345;28;20348;-75
2022/07/07 06:25:08;;;;;;;3.90;3.60;;;19.00;78.40;;;;;;5018850;28;20570;-75
2022/07/07 06:27:37;;;;;;;4.83;3.30;;;19.00;79.10;;;;;;5013587;28;20298;-75
2022/07/07 06:30:04;;;;;;;3.00;2.67;;;19.20;79.10;;;;;;5016969;28;20453;-75
2022/07/07 06:32:30;;;;;;;3.63;3.20;;;19.30;78.60;;;;;;5011406;28;20440;-76
2022/07/07 06:34:56;;;;;;;3.70;2.70;;;19.50;77.50;;;;;;5018159;28;20471;-76
2022/07/07 06:37:22;;;;;;;4.20;2.80;;;19.40;77.10;;;;;;5021610;28;20454;-76
2022/07/07 06:39:47;;;;;;;3.13;2.83;;;19.50;76.40;;;;;;5013365;28;20190;-76
2022/07/07 06:42:13;;;;;;;11.57;4.60;;;19.50;76.20;;;;;;5014480;28;20648;-76
2022/07/07 06:44:39;;;;;;;3.67;3.10;;;19.60;76.70;;;;;;5015650;28;20216;-76
2022/07/07 06:47:04;;;;;;;4.40;3.20;;;19.70;76.30;;;;;;5019633;28;20201;-75
2022/07/07 06:49:30;;;;;;;3.60;3.30;;;19.70;75.60;;;;;;5019457;28;20181;-76
2022/07/07 06:51:56;;;;;;;6.93;3.13;;;19.60;75.40;;;;;;5016857;28;20194;-76
2022/07/07 06:54:22;;;;;;;3.30;3.00;;;19.60;75.20;;;;;;5018807;28;20184;-76
2022/07/07 06:56:48;;;;;;;5.70;2.87;;;19.50;75.60;;;;;;5017380;28;20201;-76
2022/07/07 06:59:15;;;;;;;4.13;3.50;;;19.40;76.40;;;;;;5021563;28;20453;-76
2022/07/07 07:01:41;;;;;;;3.33;3.03;;;19.40;76.10;;;;;;5015577;28;20432;-76
2022/07/07 07:04:09;;;;;;;4.03;2.93;;;19.40;76.80;;;;;;5016117;28;20545;-76
2022/07/07 07:06:35;;;;;;;3.00;2.70;;;19.40;76.90;;;;;;5020236;28;20913;-75
2022/07/07 07:09:01;;;;;;;4.23;3.60;;;19.40;76.90;;;;;;5020261;28;20428;-75
2022/07/07 07:11:27;;;;;;;5.00;3.07;;;19.50;77.20;;;;;;5018736;28;20424;-76
2022/07/07 07:13:53;;;;;;;6.73;3.30;;;19.40;77.30;;;;;;5019355;28;20852;-75
2022/07/07 07:16:18;;;;;;;4.00;3.20;;;19.50;77.30;;;;;;5015275;28;20538;-75
2022/07/07 07:18:44;;;;;;;3.77;3.23;;;19.50;77.50;;;;;;5016637;28;20199;-76
2022/07/07 07:21:11;;;;;;;10.53;3.27;;;19.60;77.70;;;;;;5015923;28;20220;-77
2022/07/07 07:23:37;;;;;;;7.70;3.20;;;19.50;77.70;;;;;;5019706;28;20471;-75
2022/07/07 07:26:07;;;;;;;3.33;3.03;;;19.40;78.30;;;;;;5016084;28;20450;-76
2022/07/07 07:28:34;;;;;;;6.27;3.53;;;19.40;78.80;;;;;;5014790;28;20427;-76
2022/07/07 07:31:00;;;;;;;4.43;3.13;;;19.50;78.70;;;;;;5017936;28;20954;-76
2022/07/07 07:33:27;;;;;;;3.90;3.20;;;19.60;78.80;;;;;;5018742;28;20500;-77
2022/07/07 07:35:52;;;;;;;5.57;3.20;;;19.70;78.50;;;;;;5020709;28;20435;-77
2022/07/07 07:38:18;;;;;;;4.37;3.20;;;19.80;78.50;;;;;;5015413;28;20441;-77
2022/07/07 07:40:44;;;;;;;5.37;3.87;;;19.90;79.40;;;;;;5017497;28;20215;-76
2022/07/07 07:43:10;;;;;;;3.90;3.40;;;19.80;78.80;;;;;;5020642;28;20177;-75
2022/07/07 07:45:37;;;;;;;3.50;2.93;;;19.70;79.30;;;;;;5020115;28;20219;-77
2022/07/07 07:48:03;;;;;;;3.83;3.50;;;19.70;80.30;;;;;;5018775;28;20342;-76
2022/07/07 07:50:30;;;;;;;4.13;3.13;;;19.80;80.00;;;;;;5015798;28;20430;-76
2022/07/07 07:52:56;;;;;;;4.90;3.60;;;19.90;79.80;;;;;;5020188;28;20535;-77
2022/07/07 07:55:22;;;;;;;3.73;3.23;;;19.90;80.10;;;;;;4999964;28;20527;-75
2022/07/07 07:57:48;;;;;;;6.33;3.33;;;19.80;80.40;;;;;;5014956;28;20454;-75
2022/07/07 08:00:16;;;;;;;9.23;3.70;;;19.80;80.90;;;;;;5012034;28;20439;-76
2022/07/07 08:02:42;;;;;;;3.87;3.47;;;19.80;81.40;;;;;;5021156;28;20439;-75
2022/07/07 08:05:10;;;;;;;4.93;3.20;;;19.80;81.70;;;;;;5016144;28;20860;-76
2022/07/07 08:07:36;;;;;;;3.83;3.17;;;19.70;81.80;;;;;;5012052;28;20458;-76
2022/07/07 08:10:02;;;;;;;6.73;3.10;;;19.70;82.50;;;;;;5016750;28;20431;-76
2022/07/07 08:12:27;;;;;;;9.00;4.90;;;19.60;82.90;;;;;;5000643;28;20197;-76
2022/07/07 08:14:53;;;;;;;3.80;3.37;;;19.60;83.10;;;;;;5016468;28;20947;-76
2022/07/07 08:17:19;;;;;;;4.07;3.37;;;19.50;83.80;;;;;;5015791;28;20196;-74
2022/07/07 08:19:44;;;;;;;4.80;4.30;;;19.50;84.40;;;;;;5013460;28;20212;-76
2022/07/07 08:22:10;;;;;;;5.93;4.10;;;19.60;84.90;;;;;;5009472;28;20203;-77
2022/07/07 08:24:36;;;;;;;4.03;3.70;;;19.60;85.00;;;;;;5013694;28;20731;-77
2022/07/07 08:27:03;;;;;;;7.77;3.50;;;19.50;85.90;;;;;;5015187;28;20469;-76
2022/07/07 08:29:28;;;;;;;4.70;4.20;;;19.60;86.40;;;;;;5010924;28;20568;-76
2022/07/07 08:31:54;;;;;;;5.60;4.13;;;19.60;86.80;;;;;;5012325;28;20428;-76
2022/07/07 08:34:20;;;;;;;5.50;4.00;;;19.50;87.10;;;;;;5009286;28;20588;-76
2022/07/07 08:36:46;;;;;;;5.80;3.97;;;19.60;87.60;;;;;;5008974;28;20200;-76
2022/07/07 08:39:11;;;;;;;9.30;4.27;;;19.60;87.00;;;;;;5014659;28;20180;-76
2022/07/07 08:41:39;;;;;;;5.00;3.63;;;19.70;87.00;;;;;;5011324;28;20729;-76
2022/07/07 08:44:05;;;;;;;4.63;3.93;;;19.90;87.10;;;;;;5017257;28;20463;-77
2022/07/07 08:46:30;;;;;;;9.57;4.87;;;19.90;86.80;;;;;;5018971;28;20558;-77
2022/07/07 08:48:56;;;;;;;5.47;3.80;;;20.00;86.60;;;;;;5019748;28;20287;-77
2022/07/07 08:51:22;;;;;;;5.73;4.00;;;20.10;86.50;;;;;;5015873;28;20235;-75
2022/07/07 08:53:48;;;;;;;3.50;3.13;;;20.30;86.50;;;;;;5013753;28;20758;-74
2022/07/07 08:56:16;;;;;;;3.93;3.40;;;20.30;86.20;;;;;;5000416;28;20200;-75
2022/07/07 08:58:42;;;;;;;5.03;3.80;;;20.40;86.30;;;;;;5016587;28;20201;-75
2022/07/07 09:01:08;;;;;;;5.83;3.67;;;20.50;85.70;;;;;;5013347;28;20545;-76
2022/07/07 09:03:34;;;;;;;8.60;3.93;;;20.70;85.70;;;;;;5002164;28;20978;-74
2022/07/07 09:06:00;;;;;;;3.47;3.17;;;20.80;85.10;;;;;;5014460;28;20217;-75
2022/07/07 09:08:29;;;;;;;4.90;3.57;;;20.90;84.60;;;;;;5014264;28;21253;-76
2022/07/07 09:10:55;;;;;;;6.23;3.80;;;20.80;84.30;;;;;;5014057;28;20493;-75
2022/07/07 09:13:32;;;;;;;5.30;3.80;;;20.80;85.10;;;;;;5017493;28;20811;-76
2022/07/07 09:16:04;;;;;;;7.27;3.50;;;20.90;85.20;;;;;;5014888;28;20901;-75
2022/07/07 09:18:35;;;;;;;9.03;3.50;;;20.90;85.10;;;;;;5004122;28;20459;-77
2022/07/07 09:21:04;;;;;;;4.87;3.70;;;21.10;85.20;;;;;;5012068;28;20862;-77
2022/07/07 09:23:31;;;;;;;5.40;3.20;;;21.20;84.40;;;;;;5002404;28;20514;-76
2022/07/07 09:25:57;;;;;;;5.87;3.90;;;21.40;84.30;;;;;;5020809;28;20593;-76
2022/07/07 09:28:27;;;;;;;7.10;3.50;;;21.40;84.00;;;;;;5016549;28;20436;-77
2022/07/07 09:30:53;;;;;;;6.20;3.60;;;21.40;84.00;;;;;;5014540;28;21137;-77
2022/07/07 09:33:25;;;;;;;4.50;3.30;;;21.40;84.20;;;;;;4998990;28;20573;-76
2022/07/07 09:38:40;;;;;;;7.70;4.10;;;21.40;83.90;;;;;;5008831;28;20494;-76
2022/07/07 09:41:13;;;;;;;4.40;3.80;;;21.60;84.90;;;;;;5010644;28;20968;-76
2022/07/07 09:43:53;;;;;;;4.80;3.63;;;21.70;84.10;;;;;;5013988;28;20454;-76
2022/07/07 09:46:23;;;;;;;3.63;3.33;;;21.50;84.50;;;;;;5007322;28;20446;-76
2022/07/07 09:49:00;;;;;;;5.70;3.63;;;21.50;84.80;;;;;;5012218;28;20450;-77
2022/07/07 09:51:33;;;;;;;6.33;3.90;;;21.60;85.10;;;;;;5014522;28;20625;-77
2022/07/07 09:54:12;;;;;;;5.93;4.00;;;21.60;85.50;;;;;;5013100;28;20451;-76
2022/07/07 09:56:45;;;;;;;5.53;3.57;;;21.60;85.90;;;;;;5012471;28;21213;-77
2022/07/07 09:59:16;;;;;;;4.70;3.93;;;21.70;86.10;;;;;;5012795;28;20430;-77
2022/07/07 10:01:44;;;;;;;5.43;3.90;;;21.80;86.10;;;;;;5014877;28;20424;-76
2022/07/07 10:04:22;;;;;;;4.50;3.47;;;21.90;86.20;;;;;;5018261;28;20458;-76
2022/07/07 10:06:48;;;;;;;6.30;4.20;;;21.90;86.30;;;;;;4997582;28;20543;-76
2022/07/07 10:09:19;;;;;;;8.17;3.80;;;21.90;86.10;;;;;;5019295;28;21014;-76
2022/07/07 10:11:49;;;;;;;10.63;3.73;;;22.10;86.30;;;;;;5026411;28;20245;-75
2022/07/07 10:14:37;;;;;;;5.77;3.90;;;22.10;85.90;;;;;;5022386;28;20439;-77
2022/07/07 10:17:03;;;;;;;5.90;3.70;;;22.10;86.10;;;;;;5017995;28;20451;-77
2022/07/07 10:19:29;;;;;;;7.43;3.67;;;22.30;86.10;;;;;;5019457;28;20445;-76
2022/07/07 10:21:56;;;;;;;5.47;4.00;;;22.30;85.60;;;;;;5026100;28;20449;-76
2022/07/07 10:24:25;;;;;;;4.33;3.80;;;22.30;85.40;;;;;;5026572;28;20204;-77
2022/07/07 10:26:53;;;;;;;5.37;3.90;;;22.20;85.30;;;;;;5020524;28;20573;-77
2022/07/07 10:29:41;;;;;;;8.10;3.97;;;22.20;85.50;;;;;;5022545;28;20942;-77
2022/07/07 10:32:09;;;;;;;4.13;3.60;;;22.30;85.60;;;;;;5021748;28;20427;-77
2022/07/07 10:34:40;;;;;;;5.97;3.50;;;22.30;85.60;;;;;;5023769;28;20424;-77
2022/07/07 10:37:10;;;;;;;5.13;3.63;;;22.40;85.80;;;;;;5016350;28;20437;-77
2022/07/07 10:39:41;;;;;;;4.60;3.67;;;22.40;86.60;;;;;;5019988;28;20974;-77
2022/07/07 10:42:24;;;;;;;5.63;3.70;;;22.40;86.10;;;;;;5022320;28;20420;-76
2022/07/07 10:44:52;;;;;;;6.83;4.00;;;22.30;86.40;;;;;;5017449;28;20569;-76
2022/07/07 10:47:17;;;;;;;6.73;4.07;;;22.20;86.80;;;;;;5008705;28;20446;-75
2022/07/07 10:49:54;;;;;;;8.43;3.47;;;22.10;86.80;;;;;;5022607;28;20454;-76
2022/07/07 10:52:41;;;;;;;6.83;4.03;;;22.20;87.10;;;;;;5016844;28;20733;-74
2022/07/07 10:55:07;;;;;;;5.73;3.70;;;22.20;87.40;;;;;;5025226;28;20923;-76
2022/07/07 10:57:47;;;;;;;5.27;3.77;;;22.30;87.30;;;;;;5020105;28;20470;-76
2022/07/07 11:00:19;;;;;;;5.90;3.60;;;22.30;87.40;;;;;;5018288;28;20815;-77
2022/07/07 11:02:53;;;;;;;5.00;4.20;;;22.20;87.50;;;;;;5020413;28;20810;-76
2022/07/07 11:05:18;;;;;;;4.07;3.67;;;22.20;88.20;;;;;;5018749;28;20462;-76
2022/07/07 11:07:56;;;;;;;5.73;3.93;;;22.10;89.40;;;;;;5017221;28;20467;-76
2022/07/07 11:10:42;;;;;;;8.10;3.73;;;22.10;89.90;;;;;;5021983;28;20558;-76
2022/07/07 11:13:29;;;;;;;4.60;4.07;;;22.20;90.10;;;;;;5008736;28;20521;-76
2022/07/07 11:16:17;;;;;;;7.10;3.47;;;22.40;90.20;;;;;;5018609;28;20539;-76
2022/07/07 11:18:48;;;;;;;4.53;3.43;;;22.40;89.30;;;;;;5020537;28;20434;-76
2022/07/07 11:21:13;;;;;;;7.27;3.97;;;22.60;89.00;;;;;;5014065;28;20433;-75
2022/07/07 11:23:56;;;;;;;4.40;4.00;;;22.80;88.60;;;;;;5019134;28;20471;-77
2022/07/07 11:26:25;;;;;;;3.90;3.47;;;23.00;88.50;;;;;;5013644;28;20239;-74
2022/07/07 11:28:52;;;;;;;4.50;3.40;;;23.00;86.40;;;;;;5005962;28;20439;-75
2022/07/07 11:31:18;;;;;;;4.20;3.70;;;23.00;87.30;;;;;;5021643;28;20435;-75
2022/07/07 11:33:50;;;;;;;4.40;3.23;;;22.80;86.40;;;;;;5017645;28;20438;-75
2022/07/07 11:36:21;;;;;;;5.00;3.10;;;22.60;86.70;;;;;;5021190;28;20213;-74
2022/07/07 11:38:51;;;;;;;4.20;3.80;;;22.40;87.50;;;;;;4999886;28;20489;-73
2022/07/07 11:41:17;;;;;;;4.80;3.60;;;22.40;87.90;;;;;;5018554;28;20449;-75
2022/07/07 11:43:43;;;;;;;4.30;3.60;;;22.50;88.40;;;;;;5022126;28;20460;-76
2022/07/07 11:46:09;;;;;;;3.83;3.33;;;22.70;88.00;;;;;;5017748;28;20459;-76
2022/07/07 11:48:43;;;;;;;2.90;2.70;;;22.70;87.60;;;;;;5017908;28;20658;-75
2022/07/07 11:51:09;;;;;;;4.27;3.87;;;22.90;87.50;;;;;;5017660;28;20187;-76
2022/07/07 11:53:35;;;;;;;4.10;3.57;;;22.90;86.80;;;;;;5016117;28;20451;-75
2022/07/07 11:56:01;;;;;;;3.33;3.03;;;22.90;86.60;;;;;;5013377;28;20284;-75
2022/07/07 11:58:29;;;;;;;4.20;3.40;;;22.90;86.20;;;;;;5001406;28;20443;-75
2022/07/07 12:00:55;;;;;;;4.53;3.37;;;22.80;86.40;;;;;;5017909;28;20449;-76
2022/07/07 12:03:28;;;;;;;4.00;3.40;;;22.80;87.30;;;;;;5014416;28;20455;-75
2022/07/07 12:05:54;;;;;;;3.87;3.33;;;22.90;87.60;;;;;;5008736;28;20812;-76
2022/07/07 12:08:19;;;;;;;4.77;3.23;;;23.00;87.30;;;;;;5009682;28;20432;-75
2022/07/07 12:10:53;;;;;;;5.87;3.50;;;23.00;87.40;;;;;;5017559;28;20303;-75
2022/07/07 12:13:19;;;;;;;4.67;3.30;;;22.80;87.90;;;;;;5002450;28;20305;-76
2022/07/07 12:15:46;;;;;;;4.23;3.40;;;22.90;88.40;;;;;;5013212;28;20420;-75
2022/07/07 12:18:13;;;;;;;7.57;3.13;;;23.00;88.50;;;;;;5014690;28;21017;-75
2022/07/07 12:20:40;;;;;;;4.60;3.20;;;23.00;88.20;;;;;;5008787;28;20862;-76
2022/07/07 12:23:09;;;;;;;5.53;4.33;;;23.20;88.20;;;;;;5016160;28;20510;-75
2022/07/07 12:25:36;;;;;;;4.53;3.40;;;23.20;88.20;;;;;;4999901;28;20995;-74
2022/07/07 12:28:08;;;;;;;5.07;3.47;;;23.20;88.40;;;;;;5019986;28;20454;-75
2022/07/07 12:30:36;;;;;;;4.90;3.40;;;23.10;88.10;;;;;;5013892;28;20442;-75
2022/07/07 12:33:03;;;;;;;4.87;3.50;;;23.30;88.40;;;;;;5019773;28;20962;-74
2022/07/07 12:35:38;;;;;;;4.53;3.90;;;24.30;86.90;;;;;;5015725;28;20848;-75
2022/07/07 12:38:06;;;;;;;4.83;3.67;;;25.50;82.20;;;;;;5010792;28;20463;-75
2022/07/07 12:40:34;;;;;;;3.53;3.10;;;25.20;80.70;;;;;;5015751;28;20474;-75
2022/07/07 12:43:11;;;;;;;3.77;3.47;;;24.70;80.50;;;;;;5014503;28;20518;-74
2022/07/07 12:45:42;;;;;;;3.93;3.30;;;24.40;82.20;;;;;;5018217;28;20507;-74
2022/07/07 12:48:17;;;;;;;6.10;3.77;;;24.10;82.70;;;;;;5030826;28;20424;-74
2022/07/07 12:50:43;;;;;;;3.50;3.20;;;24.00;83.70;;;;;;5014673;28;20510;-74